sensor_id;sensor_type;location;lat;lon;timestamp;P1;durP1;ratioP1;P2;durP2;ratioP2
4452;SDS011;2239;48.152;11.584;2022-12-20T00:01:25;2.40;;;1.75;;
4452;SDS011;2239;48.152;11.584;2022-12-20T00:03:53;1.80;;;1.70;;
4452;SDS011;2239;48.152;11.584;2022-12-20T00:06:21;2.90;;;2.15;;
4452;SDS011;2239;48.152;11.584;2022-12-20T00:08:52;2.42;;;2.20;;
4452;SDS011;2239;48.152;11.584;2022-12-20T00:11:19;6.65;;;1.63;;
4452;SDS011;2239;48.152;11.584;2022-12-20T00:13:45;3.43;;;1.63;;
4452;SDS011;2239;48.152;11.584;2022-12-20T00:16:12;2.55;;;1.17;;
4452;SDS011;2239;48.152;11.584;2022-12-20T00:18:40;2.72;;;1.95;;
4452;SDS011;2239;48.152;11.584;2022-12-20T00:21:07;2.05;;;1.30;;
4452;SDS011;2239;48.152;11.584;2022-12-20T00:23:34;2.20;;;1.75;;
4452;SDS011;2239;48.152;11.584;2022-12-20T00:26:04;3.30;;;1.02;;
4452;SDS011;2239;48.152;11.584;2022-12-20T00:28:32;1.95;;;1.58;;
4452;SDS011;2239;48.152;11.584;2022-12-20T00:30:59;5.45;;;2.03;;
4452;SDS011;2239;48.152;11.584;2022-12-20T00:33:26;1.92;;;1.38;;
4452;SDS011;2239;48.152;11.584;2022-12-20T00:35:53;1.02;;;0.98;;
4452;SDS011;2239;48.152;11.584;2022-12-20T00:38:20;1.63;;;1.52;;
4452;SDS011;2239;48.152;11.584;2022-12-20T00:41:03;3.83;;;1.75;;
4452;SDS011;2239;48.152;11.584;2022-12-20T00:43:30;5.25;;;1.55;;
4452;SDS011;2239;48.152;11.584;2022-12-20T00:45:57;5.20;;;1.55;;
4452;SDS011;2239;48.152;11.584;2022-12-20T00:48:24;8.32;;;1.92;;
4452;SDS011;2239;48.152;11.584;2022-12-20T00:50:50;7.50;;;1.95;;
4452;SDS011;2239;48.152;11.584;2022-12-20T00:53:17;2.83;;;1.70;;
4452;SDS011;2239;48.152;11.584;2022-12-20T00:55:43;4.77;;;1.90;;
4452;SDS011;2239;48.152;11.584;2022-12-20T00:58:10;8.15;;;1.35;;
4452;SDS011;2239;48.152;11.584;2022-12-20T01:00:36;3.60;;;2.03;;
4452;SDS011;2239;48.152;11.584;2022-12-20T01:03:03;1.52;;;1.15;;
4452;SDS011;2239;48.152;11.584;2022-12-20T01:05:29;1.08;;;0.98;;
4452;SDS011;2239;48.152;11.584;2022-12-20T01:07:55;2.17;;;1.13;;
4452;SDS011;2239;48.152;11.584;2022-12-20T01:10:21;0.80;;;0.80;;
4452;SDS011;2239;48.152;11.584;2022-12-20T01:12:47;0.73;;;0.73;;
4452;SDS011;2239;48.152;11.584;2022-12-20T01:15:13;1.47;;;1.20;;
4452;SDS011;2239;48.152;11.584;2022-12-20T01:17:39;0.82;;;0.82;;
4452;SDS011;2239;48.152;11.584;2022-12-20T01:20:05;2.38;;;0.93;;
4452;SDS011;2239;48.152;11.584;2022-12-20T01:22:32;2.88;;;1.45;;
4452;SDS011;2239;48.152;11.584;2022-12-20T01:24:58;2.65;;;1.00;;
4452;SDS011;2239;48.152;11.584;2022-12-20T01:27:24;6.17;;;1.47;;
4452;SDS011;2239;48.152;11.584;2022-12-20T01:29:50;4.57;;;0.90;;
4452;SDS011;2239;48.152;11.584;2022-12-20T01:32:15;0.80;;;0.80;;
4452;SDS011;2239;48.152;11.584;2022-12-20T01:34:41;1.40;;;1.17;;
4452;SDS011;2239;48.152;11.584;2022-12-20T01:37:07;1.93;;;0.80;;
4452;SDS011;2239;48.152;11.584;2022-12-20T01:39:32;5.70;;;2.10;;
4452;SDS011;2239;48.152;11.584;2022-12-20T01:41:58;1.23;;;0.93;;
4452;SDS011;2239;48.152;11.584;2022-12-20T01:46:49;1.93;;;1.00;;
4452;SDS011;2239;48.152;11.584;2022-12-20T01:52:13;1.55;;;0.63;;
4452;SDS011;2239;48.152;11.584;2022-12-20T01:54:47;0.70;;;0.65;;
4452;SDS011;2239;48.152;11.584;2022-12-20T01:57:17;1.60;;;0.98;;
4452;SDS011;2239;48.152;11.584;2022-12-20T01:59:48;1.98;;;1.83;;
4452;SDS011;2239;48.152;11.584;2022-12-20T02:02:16;1.45;;;1.35;;
4452;SDS011;2239;48.152;11.584;2022-12-20T02:04:42;0.60;;;0.50;;
4452;SDS011;2239;48.152;11.584;2022-12-20T02:07:08;1.83;;;0.80;;
4452;SDS011;2239;48.152;11.584;2022-12-20T02:09:39;0.70;;;0.70;;
4452;SDS011;2239;48.152;11.584;2022-12-20T02:12:12;0.60;;;0.60;;
4452;SDS011;2239;48.152;11.584;2022-12-20T02:20:57;0.70;;;0.70;;
4452;SDS011;2239;48.152;11.584;2022-12-20T02:23:31;4.18;;;1.05;;
4452;SDS011;2239;48.152;11.584;2022-12-20T02:32:11;1.17;;;1.00;;
4452;SDS011;2239;48.152;11.584;2022-12-20T02:35:06;0.60;;;0.60;;
4452;SDS011;2239;48.152;11.584;2022-12-20T02:37:33;0.90;;;0.40;;
4452;SDS011;2239;48.152;11.584;2022-12-20T02:39:58;2.20;;;1.10;;
4452;SDS011;2239;48.152;11.584;2022-12-20T02:42:25;2.33;;;1.35;;
4452;SDS011;2239;48.152;11.584;2022-12-20T02:44:54;0.50;;;0.50;;
4452;SDS011;2239;48.152;11.584;2022-12-20T02:50:17;2.35;;;1.05;;
4452;SDS011;2239;48.152;11.584;2022-12-20T02:52:46;1.45;;;0.57;;
4452;SDS011;2239;48.152;11.584;2022-12-20T02:55:13;1.50;;;0.95;;
4452;SDS011;2239;48.152;11.584;2022-12-20T02:57:55;0.82;;;0.60;;
4452;SDS011;2239;48.152;11.584;2022-12-20T03:00:26;1.13;;;1.02;;
4452;SDS011;2239;48.152;11.584;2022-12-20T03:02:58;0.50;;;0.40;;
4452;SDS011;2239;48.152;11.584;2022-12-20T03:05:44;0.80;;;0.50;;
4452;SDS011;2239;48.152;11.584;2022-12-20T03:08:12;0.40;;;0.40;;
4452;SDS011;2239;48.152;11.584;2022-12-20T03:10:37;0.90;;;0.90;;
4452;SDS011;2239;48.152;11.584;2022-12-20T03:13:03;0.63;;;0.57;;
4452;SDS011;2239;48.152;11.584;2022-12-20T03:15:29;0.60;;;0.57;;
4452;SDS011;2239;48.152;11.584;2022-12-20T03:17:55;3.27;;;1.07;;
4452;SDS011;2239;48.152;11.584;2022-12-20T03:20:20;3.13;;;0.80;;
4452;SDS011;2239;48.152;11.584;2022-12-20T03:22:46;2.60;;;0.63;;
4452;SDS011;2239;48.152;11.584;2022-12-20T03:25:12;0.70;;;0.57;;
4452;SDS011;2239;48.152;11.584;2022-12-20T03:27:38;1.23;;;0.73;;
4452;SDS011;2239;48.152;11.584;2022-12-20T03:30:04;0.50;;;0.50;;
4452;SDS011;2239;48.152;11.584;2022-12-20T03:32:30;1.20;;;0.60;;
4452;SDS011;2239;48.152;11.584;2022-12-20T03:34:56;1.93;;;0.63;;
4452;SDS011;2239;48.152;11.584;2022-12-20T03:37:21;0.60;;;0.60;;
4452;SDS011;2239;48.152;11.584;2022-12-20T03:39:47;0.97;;;0.60;;
4452;SDS011;2239;48.152;11.584;2022-12-20T03:42:12;0.50;;;0.50;;
4452;SDS011;2239;48.152;11.584;2022-12-20T03:44:39;1.80;;;0.70;;
4452;SDS011;2239;48.152;11.584;2022-12-20T03:47:04;0.50;;;0.43;;
4452;SDS011;2239;48.152;11.584;2022-12-20T03:49:30;1.00;;;0.90;;
4452;SDS011;2239;48.152;11.584;2022-12-20T03:51:56;0.70;;;0.40;;
4452;SDS011;2239;48.152;11.584;2022-12-20T03:54:21;1.37;;;0.70;;
4452;SDS011;2239;48.152;11.584;2022-12-20T03:56:47;0.60;;;0.60;;
4452;SDS011;2239;48.152;11.584;2022-12-20T03:59:12;1.10;;;0.80;;
4452;SDS011;2239;48.152;11.584;2022-12-20T04:01:38;0.50;;;0.50;;
4452;SDS011;2239;48.152;11.584;2022-12-20T04:04:04;0.50;;;0.40;;
4452;SDS011;2239;48.152;11.584;2022-12-20T04:06:30;0.70;;;0.40;;
4452;SDS011;2239;48.152;11.584;2022-12-20T04:08:56;0.50;;;0.50;;
4452;SDS011;2239;48.152;11.584;2022-12-20T04:11:21;2.40;;;1.03;;
4452;SDS011;2239;48.152;11.584;2022-12-20T04:13:51;1.03;;;0.93;;
4452;SDS011;2239;48.152;11.584;2022-12-20T04:16:21;0.52;;;0.52;;
4452;SDS011;2239;48.152;11.584;2022-12-20T04:18:48;1.15;;;0.40;;
4452;SDS011;2239;48.152;11.584;2022-12-20T04:21:14;0.80;;;0.80;;
4452;SDS011;2239;48.152;11.584;2022-12-20T04:23:45;0.85;;;0.80;;
4452;SDS011;2239;48.152;11.584;2022-12-20T04:26:11;0.53;;;0.53;;
4452;SDS011;2239;48.152;11.584;2022-12-20T04:28:37;0.60;;;0.50;;
4452;SDS011;2239;48.152;11.584;2022-12-20T04:31:03;0.90;;;0.80;;
4452;SDS011;2239;48.152;11.584;2022-12-20T04:33:29;0.93;;;0.60;;
4452;SDS011;2239;48.152;11.584;2022-12-20T04:35:55;1.90;;;1.00;;
4452;SDS011;2239;48.152;11.584;2022-12-20T04:38:21;2.50;;;0.90;;
4452;SDS011;2239;48.152;11.584;2022-12-20T04:40:47;1.40;;;1.00;;
4452;SDS011;2239;48.152;11.584;2022-12-20T04:43:14;1.05;;;0.95;;
4452;SDS011;2239;48.152;11.584;2022-12-20T04:45:40;0.80;;;0.68;;
4452;SDS011;2239;48.152;11.584;2022-12-20T04:48:05;0.40;;;0.30;;
4452;SDS011;2239;48.152;11.584;2022-12-20T04:50:31;0.80;;;0.60;;
4452;SDS011;2239;48.152;11.584;2022-12-20T04:52:57;1.20;;;1.10;;
4452;SDS011;2239;48.152;11.584;2022-12-20T04:55:41;0.75;;;0.75;;
4452;SDS011;2239;48.152;11.584;2022-12-20T04:58:07;0.90;;;0.60;;
4452;SDS011;2239;48.152;11.584;2022-12-20T05:00:33;0.40;;;0.40;;
4452;SDS011;2239;48.152;11.584;2022-12-20T05:02:59;1.30;;;0.52;;
4452;SDS011;2239;48.152;11.584;2022-12-20T05:05:25;2.30;;;0.50;;
4452;SDS011;2239;48.152;11.584;2022-12-20T05:07:50;1.33;;;0.50;;
4452;SDS011;2239;48.152;11.584;2022-12-20T05:10:20;0.40;;;0.40;;
4452;SDS011;2239;48.152;11.584;2022-12-20T05:12:45;0.50;;;0.40;;
4452;SDS011;2239;48.152;11.584;2022-12-20T05:15:11;0.60;;;0.60;;
4452;SDS011;2239;48.152;11.584;2022-12-20T05:17:36;1.43;;;0.60;;
4452;SDS011;2239;48.152;11.584;2022-12-20T05:20:03;0.60;;;0.50;;
4452;SDS011;2239;48.152;11.584;2022-12-20T05:22:30;1.15;;;0.95;;
4452;SDS011;2239;48.152;11.584;2022-12-20T05:25:14;0.65;;;0.65;;
4452;SDS011;2239;48.152;11.584;2022-12-20T05:27:59;0.70;;;0.70;;
4452;SDS011;2239;48.152;11.584;2022-12-20T05:30:24;2.60;;;0.90;;
4452;SDS011;2239;48.152;11.584;2022-12-20T05:32:50;0.40;;;0.40;;
4452;SDS011;2239;48.152;11.584;2022-12-20T05:35:16;1.13;;;0.50;;
4452;SDS011;2239;48.152;11.584;2022-12-20T05:37:42;0.70;;;0.70;;
4452;SDS011;2239;48.152;11.584;2022-12-20T05:40:07;0.80;;;0.53;;
4452;SDS011;2239;48.152;11.584;2022-12-20T05:42:34;1.02;;;0.45;;
4452;SDS011;2239;48.152;11.584;2022-12-20T05:45:00;0.70;;;0.60;;
4452;SDS011;2239;48.152;11.584;2022-12-20T05:47:27;0.60;;;0.40;;
4452;SDS011;2239;48.152;11.584;2022-12-20T05:49:52;1.30;;;0.93;;
4452;SDS011;2239;48.152;11.584;2022-12-20T05:52:19;0.57;;;0.57;;
4452;SDS011;2239;48.152;11.584;2022-12-20T05:54:45;1.33;;;0.90;;
4452;SDS011;2239;48.152;11.584;2022-12-20T05:57:11;2.40;;;0.87;;
4452;SDS011;2239;48.152;11.584;2022-12-20T05:59:36;0.50;;;0.50;;
4452;SDS011;2239;48.152;11.584;2022-12-20T06:02:03;0.52;;;0.52;;
4452;SDS011;2239;48.152;11.584;2022-12-20T06:04:30;0.50;;;0.50;;
4452;SDS011;2239;48.152;11.584;2022-12-20T06:06:56;0.40;;;0.40;;
4452;SDS011;2239;48.152;11.584;2022-12-20T06:09:23;0.70;;;0.70;;
4452;SDS011;2239;48.152;11.584;2022-12-20T06:11:49;0.60;;;0.60;;
4452;SDS011;2239;48.152;11.584;2022-12-20T06:14:15;0.60;;;0.60;;
4452;SDS011;2239;48.152;11.584;2022-12-20T06:16:40;0.40;;;0.30;;
4452;SDS011;2239;48.152;11.584;2022-12-20T06:19:06;0.60;;;0.43;;
4452;SDS011;2239;48.152;11.584;2022-12-20T06:21:32;12.60;;;0.80;;
4452;SDS011;2239;48.152;11.584;2022-12-20T06:23:57;1.63;;;0.80;;
4452;SDS011;2239;48.152;11.584;2022-12-20T06:26:23;4.60;;;1.00;;
4452;SDS011;2239;48.152;11.584;2022-12-20T06:28:49;0.80;;;0.77;;
4452;SDS011;2239;48.152;11.584;2022-12-20T06:31:20;0.60;;;0.50;;
4452;SDS011;2239;48.152;11.584;2022-12-20T06:33:46;0.50;;;0.50;;
4452;SDS011;2239;48.152;11.584;2022-12-20T06:36:12;0.40;;;0.30;;
4452;SDS011;2239;48.152;11.584;2022-12-20T06:38:37;0.50;;;0.40;;
4452;SDS011;2239;48.152;11.584;2022-12-20T06:41:03;0.40;;;0.30;;
4452;SDS011;2239;48.152;11.584;2022-12-20T06:43:29;0.70;;;0.40;;
4452;SDS011;2239;48.152;11.584;2022-12-20T06:45:54;1.07;;;0.70;;
4452;SDS011;2239;48.152;11.584;2022-12-20T06:48:20;1.77;;;0.87;;
4452;SDS011;2239;48.152;11.584;2022-12-20T06:50:49;0.73;;;0.70;;
4452;SDS011;2239;48.152;11.584;2022-12-20T06:53:15;0.55;;;0.55;;
4452;SDS011;2239;48.152;11.584;2022-12-20T06:55:40;4.00;;;0.60;;
4452;SDS011;2239;48.152;11.584;2022-12-20T06:58:06;1.00;;;0.70;;
4452;SDS011;2239;48.152;11.584;2022-12-20T07:00:32;0.60;;;0.57;;
4452;SDS011;2239;48.152;11.584;2022-12-20T07:02:58;0.60;;;0.60;;
4452;SDS011;2239;48.152;11.584;2022-12-20T07:05:24;1.43;;;0.80;;
4452;SDS011;2239;48.152;11.584;2022-12-20T07:07:49;0.73;;;0.40;;
4452;SDS011;2239;48.152;11.584;2022-12-20T07:10:15;1.83;;;0.70;;
4452;SDS011;2239;48.152;11.584;2022-12-20T07:12:41;0.60;;;0.50;;
4452;SDS011;2239;48.152;11.584;2022-12-20T07:15:07;0.40;;;0.40;;
4452;SDS011;2239;48.152;11.584;2022-12-20T07:17:33;1.48;;;0.82;;
4452;SDS011;2239;48.152;11.584;2022-12-20T07:19:59;0.40;;;0.30;;
4452;SDS011;2239;48.152;11.584;2022-12-20T07:22:24;1.77;;;0.60;;
4452;SDS011;2239;48.152;11.584;2022-12-20T07:24:50;7.00;;;2.00;;
4452;SDS011;2239;48.152;11.584;2022-12-20T07:27:16;1.93;;;1.27;;
4452;SDS011;2239;48.152;11.584;2022-12-20T07:29:42;1.17;;;0.60;;
4452;SDS011;2239;48.152;11.584;2022-12-20T07:32:09;5.03;;;0.98;;
4452;SDS011;2239;48.152;11.584;2022-12-20T07:34:36;1.05;;;0.98;;
4452;SDS011;2239;48.152;11.584;2022-12-20T07:37:02;0.90;;;0.67;;
4452;SDS011;2239;48.152;11.584;2022-12-20T07:39:27;2.03;;;1.00;;
4452;SDS011;2239;48.152;11.584;2022-12-20T07:41:53;0.43;;;0.43;;
4452;SDS011;2239;48.152;11.584;2022-12-20T07:44:20;1.55;;;0.70;;
4452;SDS011;2239;48.152;11.584;2022-12-20T07:46:46;1.20;;;0.60;;
4452;SDS011;2239;48.152;11.584;2022-12-20T07:49:12;0.80;;;0.50;;
4452;SDS011;2239;48.152;11.584;2022-12-20T07:51:39;1.50;;;0.90;;
4452;SDS011;2239;48.152;11.584;2022-12-20T07:54:14;1.30;;;0.50;;
4452;SDS011;2239;48.152;11.584;2022-12-20T07:56:44;0.80;;;0.70;;
4452;SDS011;2239;48.152;11.584;2022-12-20T07:59:12;0.60;;;0.60;;
4452;SDS011;2239;48.152;11.584;2022-12-20T08:01:41;1.45;;;0.70;;
4452;SDS011;2239;48.152;11.584;2022-12-20T08:04:10;1.15;;;0.60;;
4452;SDS011;2239;48.152;11.584;2022-12-20T08:06:42;0.50;;;0.40;;
4452;SDS011;2239;48.152;11.584;2022-12-20T08:09:08;0.83;;;0.83;;
4452;SDS011;2239;48.152;11.584;2022-12-20T08:11:38;0.50;;;0.40;;
4452;SDS011;2239;48.152;11.584;2022-12-20T08:14:08;0.88;;;0.88;;
4452;SDS011;2239;48.152;11.584;2022-12-20T08:16:35;2.22;;;0.98;;
4452;SDS011;2239;48.152;11.584;2022-12-20T08:19:00;1.20;;;1.07;;
4452;SDS011;2239;48.152;11.584;2022-12-20T08:21:26;0.50;;;0.50;;
4452;SDS011;2239;48.152;11.584;2022-12-20T08:23:53;0.60;;;0.45;;
4452;SDS011;2239;48.152;11.584;2022-12-20T08:26:18;2.97;;;0.73;;
4452;SDS011;2239;48.152;11.584;2022-12-20T08:28:44;0.63;;;0.57;;
4452;SDS011;2239;48.152;11.584;2022-12-20T08:31:10;0.75;;;0.75;;
4452;SDS011;2239;48.152;11.584;2022-12-20T08:33:37;0.87;;;0.70;;
4452;SDS011;2239;48.152;11.584;2022-12-20T08:36:05;1.00;;;0.82;;
4452;SDS011;2239;48.152;11.584;2022-12-20T08:38:35;3.25;;;0.85;;
4452;SDS011;2239;48.152;11.584;2022-12-20T08:41:04;3.63;;;0.60;;
4452;SDS011;2239;48.152;11.584;2022-12-20T08:43:35;4.00;;;0.90;;
4452;SDS011;2239;48.152;11.584;2022-12-20T08:46:02;0.75;;;0.57;;
4452;SDS011;2239;48.152;11.584;2022-12-20T08:48:28;1.55;;;0.60;;
4452;SDS011;2239;48.152;11.584;2022-12-20T08:50:54;0.97;;;0.90;;
4452;SDS011;2239;48.152;11.584;2022-12-20T08:53:21;0.50;;;0.50;;
4452;SDS011;2239;48.152;11.584;2022-12-20T08:55:47;1.33;;;0.77;;
4452;SDS011;2239;48.152;11.584;2022-12-20T08:58:13;1.07;;;0.50;;
4452;SDS011;2239;48.152;11.584;2022-12-20T09:00:39;2.35;;;1.98;;
4452;SDS011;2239;48.152;11.584;2022-12-20T09:03:05;1.63;;;0.75;;
4452;SDS011;2239;48.152;11.584;2022-12-20T09:05:32;1.83;;;1.42;;
4452;SDS011;2239;48.152;11.584;2022-12-20T09:07:57;1.37;;;0.70;;
4452;SDS011;2239;48.152;11.584;2022-12-20T09:10:26;0.97;;;0.83;;
4452;SDS011;2239;48.152;11.584;2022-12-20T09:12:51;3.63;;;1.05;;
4452;SDS011;2239;48.152;11.584;2022-12-20T09:15:17;1.53;;;1.10;;
4452;SDS011;2239;48.152;11.584;2022-12-20T09:17:43;3.70;;;1.23;;
4452;SDS011;2239;48.152;11.584;2022-12-20T09:20:08;1.13;;;1.03;;
4452;SDS011;2239;48.152;11.584;2022-12-20T09:22:34;1.27;;;1.10;;
4452;SDS011;2239;48.152;11.584;2022-12-20T09:25:00;1.80;;;0.73;;
4452;SDS011;2239;48.152;11.584;2022-12-20T09:27:25;10.17;;;1.70;;
4452;SDS011;2239;48.152;11.584;2022-12-20T09:29:51;1.27;;;0.80;;
4452;SDS011;2239;48.152;11.584;2022-12-20T09:32:16;3.87;;;1.37;;
4452;SDS011;2239;48.152;11.584;2022-12-20T09:34:42;0.63;;;0.63;;
4452;SDS011;2239;48.152;11.584;2022-12-20T09:37:08;0.70;;;0.50;;
4452;SDS011;2239;48.152;11.584;2022-12-20T09:39:33;2.00;;;1.47;;
4452;SDS011;2239;48.152;11.584;2022-12-20T09:41:59;0.77;;;0.63;;
4452;SDS011;2239;48.152;11.584;2022-12-20T09:46:54;3.13;;;1.10;;
4452;SDS011;2239;48.152;11.584;2022-12-20T09:49:28;0.80;;;0.60;;
4452;SDS011;2239;48.152;11.584;2022-12-20T09:52:10;1.52;;;0.88;;
4452;SDS011;2239;48.152;11.584;2022-12-20T09:54:59;1.45;;;0.80;;
4452;SDS011;2239;48.152;11.584;2022-12-20T10:00:39;2.28;;;1.23;;
4452;SDS011;2239;48.152;11.584;2022-12-20T10:03:11;5.53;;;1.00;;
4452;SDS011;2239;48.152;11.584;2022-12-20T10:24:30;2.03;;;0.98;;
4452;SDS011;2239;48.152;11.584;2022-12-20T10:27:05;2.75;;;1.52;;
4452;SDS011;2239;48.152;11.584;2022-12-20T10:29:39;1.65;;;1.45;;
4452;SDS011;2239;48.152;11.584;2022-12-20T10:32:09;1.45;;;1.35;;
4452;SDS011;2239;48.152;11.584;2022-12-20T10:34:39;1.13;;;0.85;;
4452;SDS011;2239;48.152;11.584;2022-12-20T10:37:11;1.70;;;0.73;;
4452;SDS011;2239;48.152;11.584;2022-12-20T10:39:40;2.35;;;1.60;;
4452;SDS011;2239;48.152;11.584;2022-12-20T10:44:50;1.10;;;1.00;;
4452;SDS011;2239;48.152;11.584;2022-12-20T10:47:50;1.38;;;1.05;;
4452;SDS011;2239;48.152;11.584;2022-12-20T10:50:20;1.45;;;0.95;;
4452;SDS011;2239;48.152;11.584;2022-12-20T10:58:03;0.68;;;0.60;;
4452;SDS011;2239;48.152;11.584;2022-12-20T11:00:47;1.75;;;0.75;;
4452;SDS011;2239;48.152;11.584;2022-12-20T11:03:20;1.13;;;1.02;;
4452;SDS011;2239;48.152;11.584;2022-12-20T11:05:53;2.60;;;0.90;;
4452;SDS011;2239;48.152;11.584;2022-12-20T11:08:26;0.80;;;0.80;;
4452;SDS011;2239;48.152;11.584;2022-12-20T11:11:27;0.60;;;0.60;;
4452;SDS011;2239;48.152;11.584;2022-12-20T11:13:48;1.08;;;0.90;;
4452;SDS011;2239;48.152;11.584;2022-12-20T11:16:25;1.00;;;0.90;;
4452;SDS011;2239;48.152;11.584;2022-12-20T11:21:57;3.65;;;1.27;;
4452;SDS011;2239;48.152;11.584;2022-12-20T11:27:29;1.90;;;1.10;;
4452;SDS011;2239;48.152;11.584;2022-12-20T11:41:12;2.70;;;1.30;;
4452;SDS011;2239;48.152;11.584;2022-12-20T11:46:40;4.00;;;1.50;;
4452;SDS011;2239;48.152;11.584;2022-12-20T11:54:45;3.05;;;1.48;;
4452;SDS011;2239;48.152;11.584;2022-12-20T11:57:19;1.30;;;1.20;;
4452;SDS011;2239;48.152;11.584;2022-12-20T11:59:57;2.17;;;1.30;;
4452;SDS011;2239;48.152;11.584;2022-12-20T12:05:05;1.93;;;1.23;;
4452;SDS011;2239;48.152;11.584;2022-12-20T12:07:39;4.93;;;1.50;;
4452;SDS011;2239;48.152;11.584;2022-12-20T12:10:13;3.17;;;1.40;;
4452;SDS011;2239;48.152;11.584;2022-12-20T12:15:28;1.00;;;0.90;;
4452;SDS011;2239;48.152;11.584;2022-12-20T12:18:06;2.03;;;1.57;;
4452;SDS011;2239;48.152;11.584;2022-12-20T12:26:12;3.90;;;1.63;;
4452;SDS011;2239;48.152;11.584;2022-12-20T12:29:31;2.03;;;1.60;;
4452;SDS011;2239;48.152;11.584;2022-12-20T12:42:51;0.83;;;0.70;;
4452;SDS011;2239;48.152;11.584;2022-12-20T12:45:44;2.03;;;1.52;;
4452;SDS011;2239;48.152;11.584;2022-12-20T12:50:56;2.25;;;1.33;;
4452;SDS011;2239;48.152;11.584;2022-12-20T12:56:30;1.20;;;0.80;;
4452;SDS011;2239;48.152;11.584;2022-12-20T13:04:51;2.33;;;1.73;;
4452;SDS011;2239;48.152;11.584;2022-12-20T13:09:56;6.87;;;2.40;;
4452;SDS011;2239;48.152;11.584;2022-12-20T13:15:01;2.55;;;1.70;;
4452;SDS011;2239;48.152;11.584;2022-12-20T13:17:47;5.77;;;1.03;;
4452;SDS011;2239;48.152;11.584;2022-12-20T13:20:21;3.03;;;2.20;;
4452;SDS011;2239;48.152;11.584;2022-12-20T13:23:13;1.90;;;1.63;;
4452;SDS011;2239;48.152;11.584;2022-12-20T13:25:44;5.28;;;1.55;;
4452;SDS011;2239;48.152;11.584;2022-12-20T13:30:41;3.53;;;2.00;;
4452;SDS011;2239;48.152;11.584;2022-12-20T13:36:02;7.37;;;3.20;;
4452;SDS011;2239;48.152;11.584;2022-12-20T13:43:56;6.40;;;2.53;;
4452;SDS011;2239;48.152;11.584;2022-12-20T13:46:36;11.53;;;2.40;;
4452;SDS011;2239;48.152;11.584;2022-12-20T13:49:24;13.48;;;3.97;;
4452;SDS011;2239;48.152;11.584;2022-12-20T13:52:05;6.23;;;2.20;;
4452;SDS011;2239;48.152;11.584;2022-12-20T13:54:33;5.32;;;2.45;;
4452;SDS011;2239;48.152;11.584;2022-12-20T13:57:08;4.87;;;2.30;;
4452;SDS011;2239;48.152;11.584;2022-12-20T13:59:40;6.07;;;2.37;;
4452;SDS011;2239;48.152;11.584;2022-12-20T14:02:16;2.63;;;1.67;;
4452;SDS011;2239;48.152;11.584;2022-12-20T14:04:45;4.23;;;2.00;;
4452;SDS011;2239;48.152;11.584;2022-12-20T14:07:27;1.80;;;1.42;;
4452;SDS011;2239;48.152;11.584;2022-12-20T14:09:57;2.70;;;1.37;;
4452;SDS011;2239;48.152;11.584;2022-12-20T14:12:24;3.33;;;1.37;;
4452;SDS011;2239;48.152;11.584;2022-12-20T14:14:50;1.88;;;1.30;;
4452;SDS011;2239;48.152;11.584;2022-12-20T14:17:26;2.90;;;1.63;;
4452;SDS011;2239;48.152;11.584;2022-12-20T14:22:40;2.77;;;1.40;;
4452;SDS011;2239;48.152;11.584;2022-12-20T14:25:16;1.90;;;1.47;;
4452;SDS011;2239;48.152;11.584;2022-12-20T14:28:18;2.60;;;1.20;;
4452;SDS011;2239;48.152;11.584;2022-12-20T14:30:46;2.23;;;1.53;;
4452;SDS011;2239;48.152;11.584;2022-12-20T14:33:16;6.80;;;2.70;;
4452;SDS011;2239;48.152;11.584;2022-12-20T14:35:49;2.63;;;1.48;;
4452;SDS011;2239;48.152;11.584;2022-12-20T14:38:33;3.17;;;2.20;;
4452;SDS011;2239;48.152;11.584;2022-12-20T14:40:59;2.47;;;1.55;;
4452;SDS011;2239;48.152;11.584;2022-12-20T14:43:27;3.50;;;1.20;;
4452;SDS011;2239;48.152;11.584;2022-12-20T14:46:07;1.75;;;1.15;;
4452;SDS011;2239;48.152;11.584;2022-12-20T14:48:43;2.80;;;1.45;;
4452;SDS011;2239;48.152;11.584;2022-12-20T14:51:09;2.45;;;0.80;;
4452;SDS011;2239;48.152;11.584;2022-12-20T14:53:36;1.70;;;1.30;;
4452;SDS011;2239;48.152;11.584;2022-12-20T14:56:04;3.65;;;1.88;;
4452;SDS011;2239;48.152;11.584;2022-12-20T14:58:37;4.30;;;1.65;;
4452;SDS011;2239;48.152;11.584;2022-12-20T15:03:55;2.88;;;1.40;;
4452;SDS011;2239;48.152;11.584;2022-12-20T15:06:42;2.05;;;1.52;;
4452;SDS011;2239;48.152;11.584;2022-12-20T15:09:08;2.78;;;2.38;;
4452;SDS011;2239;48.152;11.584;2022-12-20T15:11:34;3.80;;;1.63;;
4452;SDS011;2239;48.152;11.584;2022-12-20T15:14:02;4.93;;;1.35;;
4452;SDS011;2239;48.152;11.584;2022-12-20T15:16:47;3.38;;;1.30;;
4452;SDS011;2239;48.152;11.584;2022-12-20T15:19:13;1.80;;;1.20;;
4452;SDS011;2239;48.152;11.584;2022-12-20T15:21:40;4.47;;;2.37;;
4452;SDS011;2239;48.152;11.584;2022-12-20T15:24:25;3.63;;;2.10;;
4452;SDS011;2239;48.152;11.584;2022-12-20T15:26:52;5.50;;;1.65;;
4452;SDS011;2239;48.152;11.584;2022-12-20T15:29:19;1.48;;;1.38;;
4452;SDS011;2239;48.152;11.584;2022-12-20T15:31:47;2.00;;;1.60;;
4452;SDS011;2239;48.152;11.584;2022-12-20T15:34:48;1.98;;;1.10;;
4452;SDS011;2239;48.152;11.584;2022-12-20T15:37:08;3.65;;;1.60;;
4452;SDS011;2239;48.152;11.584;2022-12-20T15:39:39;2.67;;;1.65;;
4452;SDS011;2239;48.152;11.584;2022-12-20T15:42:05;4.57;;;1.80;;
4452;SDS011;2239;48.152;11.584;2022-12-20T15:44:31;2.20;;;2.00;;
4452;SDS011;2239;48.152;11.584;2022-12-20T15:46:59;3.78;;;2.35;;
4452;SDS011;2239;48.152;11.584;2022-12-20T15:49:29;2.67;;;1.97;;
4452;SDS011;2239;48.152;11.584;2022-12-20T15:51:56;3.38;;;1.92;;
4452;SDS011;2239;48.152;11.584;2022-12-20T15:56:49;4.10;;;1.42;;
4452;SDS011;2239;48.152;11.584;2022-12-20T15:59:15;4.28;;;1.83;;
4452;SDS011;2239;48.152;11.584;2022-12-20T16:01:40;2.20;;;1.20;;
4452;SDS011;2239;48.152;11.584;2022-12-20T16:04:06;2.27;;;1.37;;
4452;SDS011;2239;48.152;11.584;2022-12-20T16:06:37;7.50;;;1.83;;
4452;SDS011;2239;48.152;11.584;2022-12-20T16:09:02;2.30;;;1.37;;
4452;SDS011;2239;48.152;11.584;2022-12-20T16:11:29;4.15;;;1.80;;
4452;SDS011;2239;48.152;11.584;2022-12-20T16:13:55;2.83;;;1.60;;
4452;SDS011;2239;48.152;11.584;2022-12-20T16:16:23;2.45;;;1.75;;
4452;SDS011;2239;48.152;11.584;2022-12-20T16:18:53;2.80;;;1.90;;
4452;SDS011;2239;48.152;11.584;2022-12-20T16:21:22;1.90;;;1.73;;
4452;SDS011;2239;48.152;11.584;2022-12-20T16:23:50;4.53;;;1.88;;
4452;SDS011;2239;48.152;11.584;2022-12-20T16:26:17;2.53;;;1.63;;
4452;SDS011;2239;48.152;11.584;2022-12-20T16:28:45;3.47;;;1.60;;
4452;SDS011;2239;48.152;11.584;2022-12-20T16:33:57;3.75;;;2.55;;
4452;SDS011;2239;48.152;11.584;2022-12-20T16:36:25;2.78;;;1.75;;
4452;SDS011;2239;48.152;11.584;2022-12-20T16:38:51;3.27;;;1.73;;
4452;SDS011;2239;48.152;11.584;2022-12-20T16:43:48;3.83;;;2.73;;
4452;SDS011;2239;48.152;11.584;2022-12-20T16:46:15;1.98;;;1.75;;
4452;SDS011;2239;48.152;11.584;2022-12-20T16:48:43;2.78;;;1.75;;
4452;SDS011;2239;48.152;11.584;2022-12-20T16:54:06;5.60;;;1.13;;
4452;SDS011;2239;48.152;11.584;2022-12-20T16:56:40;4.13;;;2.15;;
4452;SDS011;2239;48.152;11.584;2022-12-20T16:59:06;2.95;;;2.60;;
4452;SDS011;2239;48.152;11.584;2022-12-20T17:01:33;9.07;;;2.67;;
4452;SDS011;2239;48.152;11.584;2022-12-20T17:04:01;5.75;;;2.78;;
4452;SDS011;2239;48.152;11.584;2022-12-20T17:06:28;12.27;;;3.35;;
4452;SDS011;2239;48.152;11.584;2022-12-20T17:08:53;6.53;;;2.70;;
4452;SDS011;2239;48.152;11.584;2022-12-20T17:13:51;7.43;;;2.25;;
4452;SDS011;2239;48.152;11.584;2022-12-20T17:16:18;2.70;;;1.95;;
4452;SDS011;2239;48.152;11.584;2022-12-20T17:18:45;4.07;;;2.88;;
4452;SDS011;2239;48.152;11.584;2022-12-20T17:23:47;10.45;;;2.72;;
4452;SDS011;2239;48.152;11.584;2022-12-20T17:26:15;5.43;;;2.10;;
4452;SDS011;2239;48.152;11.584;2022-12-20T17:28:44;6.03;;;2.15;;
4452;SDS011;2239;48.152;11.584;2022-12-20T17:34:08;7.05;;;4.38;;
4452;SDS011;2239;48.152;11.584;2022-12-20T17:36:42;8.60;;;4.13;;
4452;SDS011;2239;48.152;11.584;2022-12-20T17:39:08;9.53;;;3.50;;
4452;SDS011;2239;48.152;11.584;2022-12-20T17:41:34;8.20;;;3.70;;
4452;SDS011;2239;48.152;11.584;2022-12-20T17:44:00;5.65;;;3.75;;